createdAt,value
2018-09-28T00:01:22.592Z,9.80
2018-09-28T00:03:51.020Z,9.60
2018-09-28T00:06:19.397Z,9.50
2018-09-28T00:08:47.967Z,9.40
2018-09-28T00:11:16.556Z,9.30
2018-09-28T00:13:44.954Z,9.20
2018-09-28T00:16:13.457Z,9.30
2018-09-28T00:18:41.818Z,9.40
2018-09-28T00:21:10.225Z,9.40
2018-09-28T00:23:38.626Z,9.30
2018-09-28T00:26:07.395Z,9.30
2018-09-28T00:28:35.754Z,9.30
2018-09-28T00:31:04.388Z,9.30
2018-09-28T00:33:32.792Z,9.30
2018-09-28T00:36:01.242Z,9.20
2018-09-28T00:38:29.828Z,9.20
2018-09-28T00:40:58.213Z,9.20
2018-09-28T00:43:26.619Z,9.10
2018-09-28T00:45:55.177Z,9.20
2018-09-28T00:48:23.561Z,9.10
2018-09-28T00:50:51.945Z,9.20
2018-09-28T00:53:20.484Z,9.10
2018-09-28T00:55:48.953Z,9.20
2018-09-28T00:58:17.378Z,9.40
2018-09-28T01:00:45.778Z,9.60
2018-09-28T01:03:14.164Z,9.70
2018-09-28T01:05:42.805Z,9.60
2018-09-28T01:08:11.181Z,9.50
2018-09-28T01:10:39.568Z,9.50
2018-09-28T01:13:08.137Z,9.40
2018-09-28T01:15:36.533Z,9.50
2018-09-28T01:18:04.904Z,9.30
2018-09-28T01:20:33.300Z,9.30
2018-09-28T01:23:01.697Z,9.10
2018-09-28T01:25:30.087Z,9.00
2018-09-28T01:27:58.468Z,8.90
2018-09-28T01:30:26.872Z,8.90
2018-09-28T01:32:55.293Z,8.80
2018-09-28T01:35:23.689Z,8.60
2018-09-28T01:37:52.060Z,8.40
2018-09-28T01:40:20.713Z,8.20
2018-09-28T01:42:49.098Z,8.10
2018-09-28T01:45:17.457Z,8.10
2018-09-28T01:47:45.836Z,8.20
2018-09-28T01:50:14.249Z,8.30
2018-09-28T01:52:42.624Z,8.30
2018-09-28T01:55:11.389Z,8.40
2018-09-28T01:57:39.829Z,8.50
2018-09-28T02:00:08.241Z,8.40
2018-09-28T02:02:36.748Z,8.40
2018-09-28T02:05:05.212Z,8.30
2018-09-28T02:07:33.617Z,8.30
2018-09-28T02:10:02.028Z,8.10
2018-09-28T02:12:30.439Z,8.10
2018-09-28T02:14:58.820Z,7.90
2018-09-28T02:17:27.193Z,7.90
2018-09-28T02:19:55.601Z,7.90
2018-09-28T02:22:24.253Z,8.10
2018-09-28T02:24:52.636Z,8.10
2018-09-28T02:27:21.089Z,8.10
2018-09-28T02:29:49.700Z,8.00
2018-09-28T02:32:18.085Z,8.00
2018-09-28T02:34:46.448Z,8.00
2018-09-28T02:37:14.829Z,7.90
2018-09-28T02:39:43.232Z,7.90
2018-09-28T02:42:11.628Z,7.90
2018-09-28T02:44:40.009Z,7.90
2018-09-28T02:47:08.419Z,7.80
2018-09-28T02:49:36.818Z,7.70
2018-09-28T02:52:05.196Z,7.70
2018-09-28T02:54:33.620Z,7.70
2018-09-28T02:57:02.069Z,7.80
2018-09-28T02:59:30.465Z,7.80
2018-09-28T03:01:58.880Z,7.70
2018-09-28T03:04:27.263Z,7.70
2018-09-28T03:06:55.741Z,7.70
2018-09-28T03:09:24.143Z,7.70
2018-09-28T03:11:52.534Z,7.80
2018-09-28T03:14:21.123Z,7.70
2018-09-28T03:16:49.515Z,7.90
2018-09-28T03:19:17.933Z,7.80
2018-09-28T03:21:46.553Z,7.80
2018-09-28T03:24:14.932Z,7.80
2018-09-28T03:26:43.319Z,7.80
2018-09-28T03:29:11.712Z,7.80
2018-09-28T03:31:40.105Z,7.80
2018-09-28T03:34:08.750Z,7.70
2018-09-28T03:36:37.120Z,7.70
2018-09-28T03:39:07.004Z,7.70
2018-09-28T03:41:35.633Z,7.80
2018-09-28T03:44:04.318Z,7.80
2018-09-28T03:46:32.756Z,7.80
2018-09-28T03:49:01.144Z,7.80
2018-09-28T03:51:29.529Z,7.80
2018-09-28T03:53:58.128Z,7.70
2018-09-28T03:56:27.117Z,7.70
2018-09-28T03:58:56.073Z,7.70
2018-09-28T04:01:24.453Z,7.70
2018-09-28T04:03:52.884Z,7.80
2018-09-28T04:06:21.273Z,8.10
2018-09-28T04:08:50.603Z,8.20
2018-09-28T04:11:19.213Z,8.40
2018-09-28T04:13:47.615Z,8.50
2018-09-28T04:16:15.999Z,8.70
2018-09-28T04:18:44.418Z,8.80
2018-09-28T04:21:12.803Z,8.90
2018-09-28T04:23:41.345Z,9.00
2018-09-28T04:26:09.780Z,9.10
2018-09-28T04:28:38.273Z,9.20
2018-09-28T04:31:06.725Z,9.30
2018-09-28T04:33:35.329Z,9.40
2018-09-28T04:36:03.742Z,9.30
2018-09-28T04:38:32.142Z,9.40
2018-09-28T04:41:00.605Z,9.40
2018-09-28T04:43:29.005Z,9.40
2018-09-28T04:45:57.496Z,9.50
2018-09-28T04:48:25.877Z,9.60
2018-09-28T04:50:54.280Z,9.70
2018-09-28T04:53:22.675Z,9.80
2018-09-28T04:55:51.124Z,10.00
2018-09-28T04:58:19.734Z,9.90
2018-09-28T05:00:48.124Z,9.80
2018-09-28T05:03:16.656Z,9.70
2018-09-28T05:05:45.060Z,9.80
2018-09-28T05:08:13.445Z,9.90
2018-09-28T05:10:41.835Z,10.00
2018-09-28T05:13:10.645Z,10.20
2018-09-28T05:15:39.173Z,10.40
2018-09-28T05:18:07.700Z,10.50
2018-09-28T05:20:36.093Z,10.70
2018-09-28T05:23:04.550Z,10.70
2018-09-28T05:25:32.957Z,10.80
2018-09-28T05:28:01.365Z,10.90
2018-09-28T05:30:29.821Z,11.00
2018-09-28T05:32:58.346Z,11.10
2018-09-28T05:35:26.648Z,11.10
2018-09-28T05:37:55.053Z,11.20
2018-09-28T05:40:23.445Z,11.20
2018-09-28T05:42:51.853Z,11.20
2018-09-28T05:45:20.304Z,11.30
2018-09-28T05:47:49.389Z,11.30
2018-09-28T05:50:17.871Z,11.30
2018-09-28T05:52:46.258Z,11.30
2018-09-28T05:55:14.739Z,11.50
2018-09-28T05:57:43.384Z,11.50
2018-09-28T06:00:17.012Z,11.50
2018-09-28T06:02:50.987Z,11.60
2018-09-28T06:05:24.759Z,11.60
2018-09-28T06:07:53.296Z,11.60
2018-09-28T06:10:21.680Z,11.60
2018-09-28T06:12:50.093Z,11.60
2018-09-28T06:15:18.707Z,11.60
2018-09-28T06:17:47.120Z,11.60
2018-09-28T06:20:15.529Z,11.60
2018-09-28T06:22:43.947Z,11.60
2018-09-28T06:25:12.380Z,11.60
2018-09-28T06:27:40.813Z,11.60
2018-09-28T06:30:09.285Z,11.60
2018-09-28T06:32:39.105Z,11.60
2018-09-28T06:35:07.548Z,11.50
2018-09-28T06:37:36.116Z,11.50
2018-09-28T06:40:04.559Z,11.50
2018-09-28T06:42:33.037Z,11.50
2018-09-28T06:45:01.534Z,11.50
2018-09-28T06:47:30.156Z,11.50
2018-09-28T06:49:58.580Z,11.60
2018-09-28T06:52:27.333Z,11.60
2018-09-28T06:54:55.740Z,11.60
2018-09-28T06:57:24.160Z,11.50
2018-09-28T06:59:52.569Z,11.60
2018-09-28T07:02:21.521Z,11.60
2018-09-28T07:04:49.934Z,11.70
2018-09-28T07:07:18.905Z,11.60
2018-09-28T07:09:47.319Z,11.70
2018-09-28T07:12:16.177Z,11.70
2018-09-28T07:14:44.553Z,11.80
2018-09-28T07:17:12.983Z,11.80
2018-09-28T07:19:41.401Z,11.90
2018-09-28T07:22:09.881Z,12.00
2018-09-28T07:24:38.415Z,12.00
2018-09-28T07:27:06.793Z,12.10
2018-09-28T07:29:35.361Z,12.10
2018-09-28T07:32:03.753Z,12.20
2018-09-28T07:34:32.128Z,12.20
2018-09-28T07:37:00.627Z,12.30
2018-09-28T07:39:28.961Z,12.30
2018-09-28T07:41:57.417Z,12.40
2018-09-28T07:44:25.756Z,12.40
2018-09-28T07:46:54.200Z,12.50
2018-09-28T07:49:22.732Z,12.50
2018-09-28T07:51:51.145Z,12.50
2018-09-28T07:54:19.580Z,12.60
2018-09-28T07:56:48.000Z,12.70
2018-09-28T07:59:16.398Z,12.70
2018-09-28T08:01:44.904Z,12.70
2018-09-28T08:04:13.405Z,12.70
2018-09-28T08:06:42.160Z,12.80
2018-09-28T08:09:11.436Z,12.80
2018-09-28T08:11:39.838Z,12.90
2018-09-28T08:14:08.918Z,12.90
2018-09-28T08:16:37.700Z,12.90
2018-09-28T08:19:06.613Z,13.10
2018-09-28T08:21:35.263Z,13.10
2018-09-28T08:24:03.728Z,13.10
2018-09-28T08:26:32.261Z,13.20
2018-09-28T08:29:00.676Z,13.20
2018-09-28T08:31:29.080Z,13.20
2018-09-28T08:33:57.492Z,13.20
2018-09-28T08:36:25.917Z,13.20
2018-09-28T08:38:54.316Z,13.20
2018-09-28T08:41:22.736Z,13.30
2018-09-28T08:43:51.201Z,13.30
2018-09-28T08:46:20.170Z,13.30
2018-09-28T08:48:49.161Z,13.40
2018-09-28T08:51:17.557Z,13.40
2018-09-28T08:53:46.080Z,13.40
2018-09-28T08:56:14.489Z,13.40
2018-09-28T08:58:42.904Z,13.50
2018-09-28T09:01:11.305Z,13.50
2018-09-28T09:03:39.811Z,13.50
2018-09-28T09:06:08.236Z,13.50
2018-09-28T09:08:36.623Z,13.50
2018-09-28T09:11:05.316Z,13.50
2018-09-28T09:13:33.696Z,13.50
2018-09-28T09:16:02.095Z,13.50
2018-09-28T09:18:30.520Z,13.50
2018-09-28T09:20:59.324Z,13.60
2018-09-28T09:23:28.647Z,13.60
2018-09-28T09:25:57.080Z,13.60
2018-09-28T09:28:25.705Z,13.60
2018-09-28T09:30:54.092Z,13.60
2018-09-28T09:33:22.489Z,13.60
2018-09-28T09:35:50.917Z,13.70
2018-09-28T09:38:19.296Z,13.70
2018-09-28T09:40:47.739Z,13.70
2018-09-28T09:43:16.181Z,13.70
2018-09-28T09:45:44.633Z,13.70
2018-09-28T09:48:13.044Z,13.70
2018-09-28T09:50:41.438Z,13.60
2018-09-28T09:53:09.829Z,13.60
2018-09-28T09:55:38.426Z,13.60
2018-09-28T09:58:07.033Z,13.60
2018-09-28T10:00:40.756Z,13.50
2018-09-28T10:03:14.408Z,13.60
2018-09-28T10:05:43.041Z,13.60
2018-09-28T10:08:11.494Z,13.70
2018-09-28T10:10:39.956Z,13.80
2018-09-28T10:13:08.372Z,14.00
2018-09-28T10:15:36.776Z,14.10
2018-09-28T10:18:05.438Z,14.20
2018-09-28T10:20:33.840Z,14.30
2018-09-28T10:23:02.264Z,14.40
2018-09-28T10:25:30.655Z,14.50
2018-09-28T10:27:59.584Z,14.60
2018-09-28T10:30:27.971Z,14.60
2018-09-28T10:32:56.357Z,14.70
2018-09-28T10:35:24.884Z,14.70
2018-09-28T10:37:53.489Z,14.70
2018-09-28T10:40:21.967Z,14.80
2018-09-28T10:42:50.305Z,14.90
2018-09-28T10:45:18.800Z,14.80
2018-09-28T10:47:47.173Z,14.80
2018-09-28T10:50:15.781Z,14.70
2018-09-28T10:52:44.233Z,14.50
2018-09-28T10:55:12.581Z,14.50
2018-09-28T10:57:41.017Z,14.30
2018-09-28T11:00:09.445Z,14.30
2018-09-28T11:02:37.854Z,14.20
2018-09-28T11:05:06.345Z,14.10
2018-09-28T11:07:34.737Z,14.20
2018-09-28T11:10:03.195Z,14.30
2018-09-28T11:12:31.629Z,14.40
2018-09-28T11:15:00.174Z,14.50
2018-09-28T11:17:28.568Z,14.50
2018-09-28T11:19:56.968Z,14.40
2018-09-28T11:22:25.462Z,14.30
2018-09-28T11:24:53.870Z,14.30
2018-09-28T11:27:22.377Z,14.40
2018-09-28T11:29:51.069Z,14.50
2018-09-28T11:32:19.474Z,14.60
2018-09-28T11:34:47.849Z,14.80
2018-09-28T11:37:16.305Z,14.80
2018-09-28T11:39:44.756Z,14.80
2018-09-28T11:42:13.176Z,14.80
2018-09-28T11:44:41.743Z,14.90
2018-09-28T11:47:10.169Z,15.10
2018-09-28T11:49:38.576Z,15.40
2018-09-28T11:52:07.176Z,15.70
2018-09-28T11:54:35.598Z,16.10
2018-09-28T11:57:04.020Z,16.30
2018-09-28T11:59:32.460Z,16.80
2018-09-28T12:02:00.852Z,16.90
2018-09-28T12:04:29.568Z,16.70
2018-09-28T12:06:58.077Z,16.60
2018-09-28T12:09:26.454Z,16.60
2018-09-28T12:11:55.121Z,16.70
2018-09-28T12:14:23.533Z,16.40
2018-09-28T12:16:51.954Z,16.20
2018-09-28T12:19:21.152Z,16.00
2018-09-28T12:21:49.877Z,15.80
2018-09-28T12:24:18.319Z,15.70
2018-09-28T12:26:46.809Z,15.70
2018-09-28T12:29:15.205Z,15.50
2018-09-28T12:31:43.612Z,15.50
2018-09-28T12:34:12.256Z,15.40
2018-09-28T12:36:40.719Z,15.60
2018-09-28T12:39:11.130Z,15.70
2018-09-28T12:41:39.460Z,15.90
2018-09-28T12:44:08.051Z,15.80
2018-09-28T12:46:36.453Z,15.70
2018-09-28T12:49:04.911Z,15.70
2018-09-28T12:51:33.313Z,15.70
2018-09-28T12:54:02.091Z,15.80
2018-09-28T12:56:30.502Z,15.90
2018-09-28T12:58:58.925Z,15.90
2018-09-28T13:01:27.584Z,15.90
2018-09-28T13:03:55.997Z,15.90
2018-09-28T13:06:24.552Z,15.90
2018-09-28T13:08:53.341Z,16.10
2018-09-28T13:11:21.792Z,16.20
2018-09-28T13:13:50.250Z,16.30
2018-09-28T13:16:19.124Z,16.40
2018-09-28T13:18:47.571Z,16.70
2018-09-28T13:21:16.021Z,16.70
2018-09-28T13:23:44.549Z,16.80
2018-09-28T13:26:12.969Z,16.90
2018-09-28T13:28:41.696Z,17.10
2018-09-28T13:31:10.201Z,17.20
2018-09-28T13:33:38.820Z,17.20
2018-09-28T13:36:07.488Z,17.20
2018-09-28T13:38:35.979Z,17.30
2018-09-28T13:41:05.188Z,17.50
2018-09-28T13:43:33.660Z,17.10
2018-09-28T13:46:02.122Z,16.70
2018-09-28T13:48:30.519Z,17.00
2018-09-28T13:50:59.173Z,17.10
2018-09-28T13:53:27.696Z,17.40
2018-09-28T13:55:56.207Z,17.50
2018-09-28T13:58:24.768Z,17.50
2018-09-28T14:00:53.080Z,17.30
2018-09-28T14:03:21.536Z,17.20
2018-09-28T14:05:50.178Z,17.30
2018-09-28T14:08:18.634Z,17.20
2018-09-28T14:10:47.030Z,17.30
2018-09-28T14:13:15.709Z,17.70
2018-09-28T14:15:44.148Z,17.70
2018-09-28T14:18:12.895Z,17.40
2018-09-28T14:20:41.582Z,17.30
2018-09-28T14:23:10.012Z,17.10
2018-09-28T14:25:38.466Z,16.70
2018-09-28T14:28:07.348Z,16.90
2018-09-28T14:30:35.823Z,17.40
2018-09-28T14:33:04.228Z,17.80
2018-09-28T14:35:32.726Z,18.00
2018-09-28T14:38:01.164Z,18.00
2018-09-28T14:40:29.635Z,18.20
2018-09-28T14:42:58.077Z,18.10
2018-09-28T14:45:26.484Z,18.00
2018-09-28T14:47:54.870Z,17.90
2018-09-28T14:50:23.440Z,17.60
2018-09-28T14:52:51.862Z,17.30
2018-09-28T14:55:20.245Z,17.20
2018-09-28T14:57:48.622Z,17.30
2018-09-28T15:00:17.140Z,17.40
2018-09-28T15:02:45.622Z,17.20
2018-09-28T15:05:14.476Z,17.50
2018-09-28T15:07:42.894Z,17.20
2018-09-28T15:10:11.333Z,16.90
2018-09-28T15:12:39.828Z,16.90
2018-09-28T15:15:08.406Z,16.90
2018-09-28T15:17:37.039Z,16.90
2018-09-28T15:20:05.860Z,17.00
2018-09-28T15:22:34.453Z,17.00
2018-09-28T15:25:02.884Z,17.20
2018-09-28T15:27:31.416Z,17.40
2018-09-28T15:29:59.828Z,17.40
2018-09-28T15:32:28.242Z,17.40
2018-09-28T15:34:56.670Z,17.30
2018-09-28T15:37:25.084Z,17.00
2018-09-28T15:39:53.585Z,16.80
2018-09-28T15:42:22.092Z,16.70
2018-09-28T15:44:50.736Z,16.50
2018-09-28T15:47:19.149Z,16.40
2018-09-28T15:49:47.585Z,16.30
2018-09-28T15:52:15.988Z,16.30
2018-09-28T15:54:44.408Z,16.20
2018-09-28T15:57:12.825Z,16.20
2018-09-28T15:59:41.330Z,16.10
2018-09-28T16:02:09.787Z,16.00
2018-09-28T16:04:38.199Z,15.90
2018-09-28T16:07:07.088Z,15.80
2018-09-28T16:09:35.522Z,15.80
2018-09-28T16:12:04.077Z,15.70
2018-09-28T16:14:32.523Z,15.50
2018-09-28T16:17:01.044Z,15.30
2018-09-28T16:19:29.508Z,15.10
2018-09-28T16:21:57.897Z,15.00
2018-09-28T16:24:26.539Z,15.00
2018-09-28T16:26:54.949Z,14.90
2018-09-28T16:29:23.367Z,14.90
2018-09-28T16:31:51.805Z,14.90
2018-09-28T16:34:20.653Z,14.80
2018-09-28T16:36:49.108Z,14.80
2018-09-28T16:39:17.614Z,14.70
2018-09-28T16:41:46.084Z,14.70
2018-09-28T16:44:14.493Z,14.60
2018-09-28T16:46:42.877Z,14.50
2018-09-28T16:49:11.275Z,14.40
2018-09-28T16:51:39.848Z,14.20
2018-09-28T16:54:08.226Z,14.10
2018-09-28T16:56:36.612Z,14.00
2018-09-28T16:59:05.073Z,13.90
2018-09-28T17:01:33.465Z,13.80
2018-09-28T17:04:02.148Z,13.70
2018-09-28T17:06:30.606Z,13.50
2018-09-28T17:08:59.032Z,13.50
2018-09-28T17:11:27.456Z,13.40
2018-09-28T17:13:55.933Z,13.30
2018-09-28T17:16:24.485Z,13.30
2018-09-28T17:18:53.029Z,13.20
2018-09-28T17:21:21.431Z,13.10
2018-09-28T17:23:49.945Z,13.10
2018-09-28T17:26:18.362Z,13.00
2018-09-28T17:28:46.791Z,12.90
2018-09-28T17:31:15.205Z,12.80
2018-09-28T17:33:43.601Z,12.80
2018-09-28T17:36:12.020Z,12.70
2018-09-28T17:38:40.865Z,12.70
2018-09-28T17:41:09.323Z,12.70
2018-09-28T17:43:37.745Z,12.60
2018-09-28T17:46:06.492Z,12.50
2018-09-28T17:48:34.889Z,12.50
2018-09-28T17:51:03.459Z,12.40
2018-09-28T17:53:32.053Z,12.40
2018-09-28T17:56:00.480Z,12.30
2018-09-28T17:58:28.977Z,12.30
2018-09-28T18:00:57.581Z,12.20
2018-09-28T18:03:26.026Z,12.20
2018-09-28T18:05:54.449Z,12.10
2018-09-28T18:08:22.968Z,12.10
2018-09-28T18:10:51.476Z,12.10
2018-09-28T18:13:19.895Z,12.00
2018-09-28T18:15:48.885Z,12.00
2018-09-28T18:18:17.344Z,11.90
2018-09-28T18:20:46.033Z,11.90
2018-09-28T18:23:14.480Z,11.80
2018-09-28T18:25:43.107Z,11.80
2018-09-28T18:28:11.566Z,11.70
2018-09-28T18:30:40.076Z,11.80
2018-09-28T18:33:08.773Z,11.70
2018-09-28T18:35:37.195Z,11.70
2018-09-28T18:38:05.607Z,11.60
2018-09-28T18:40:34.207Z,11.60
2018-09-28T18:43:02.616Z,11.60
2018-09-28T18:45:31.049Z,11.60
2018-09-28T18:47:59.653Z,11.50
2018-09-28T18:50:28.160Z,11.50
2018-09-28T18:52:56.606Z,11.50
2018-09-28T18:55:25.497Z,11.40
2018-09-28T18:57:54.089Z,11.40
2018-09-28T19:00:22.645Z,11.40
2018-09-28T19:02:51.337Z,11.40
2018-09-28T19:05:19.774Z,11.30
2018-09-28T19:07:48.205Z,11.20
2018-09-28T19:10:16.668Z,11.20
2018-09-28T19:12:45.292Z,11.20
2018-09-28T19:15:13.754Z,11.10
2018-09-28T19:17:42.220Z,11.10
2018-09-28T19:20:10.714Z,11.10
2018-09-28T19:22:39.173Z,11.00
2018-09-28T19:25:07.613Z,10.90
2018-09-28T19:27:36.080Z,10.90
2018-09-28T19:30:04.829Z,10.90
2018-09-28T19:32:33.469Z,10.90
2018-09-28T19:35:01.906Z,10.80
2018-09-28T19:37:30.585Z,10.70
2018-09-28T19:39:59.124Z,10.60
2018-09-28T19:42:27.538Z,10.50
2018-09-28T19:44:55.971Z,10.50
2018-09-28T19:47:24.676Z,10.40
2018-09-28T19:49:53.088Z,10.40
2018-09-28T19:52:21.553Z,10.40
2018-09-28T19:54:50.240Z,10.40
2018-09-28T19:57:18.656Z,10.40
2018-09-28T19:59:47.168Z,10.40
2018-09-28T20:02:15.636Z,10.30
2018-09-28T20:04:44.057Z,10.20
2018-09-28T20:07:12.741Z,10.20
2018-09-28T20:09:41.191Z,10.10
2018-09-28T20:12:09.607Z,10.10
2018-09-28T20:14:38.048Z,10.00
2018-09-28T20:17:07.053Z,10.00
2018-09-28T20:19:35.490Z,10.00
2018-09-28T20:22:04.480Z,10.00
2018-09-28T20:24:32.923Z,10.00
2018-09-28T20:27:01.364Z,10.00
2018-09-28T20:29:29.817Z,10.10
2018-09-28T20:31:58.256Z,10.10
2018-09-28T20:34:26.696Z,10.00
2018-09-28T20:36:56.128Z,9.90
2018-09-28T20:39:24.617Z,9.90
2018-09-28T20:41:53.049Z,9.80
2018-09-28T20:44:21.463Z,9.80
2018-09-28T20:46:49.890Z,9.80
2018-09-28T20:49:18.408Z,9.80
2018-09-28T20:51:46.838Z,9.80
2018-09-28T20:54:15.200Z,9.70
2018-09-28T20:56:43.664Z,9.70
2018-09-28T20:59:14.395Z,9.70
2018-09-28T21:01:43.005Z,9.70
2018-09-28T21:04:11.453Z,9.70
2018-09-28T21:06:39.857Z,9.70
2018-09-28T21:09:09.701Z,9.70
2018-09-28T21:11:38.088Z,9.70
2018-09-28T21:14:06.753Z,9.70
2018-09-28T21:16:35.525Z,9.70
2018-09-28T21:19:04.045Z,9.70
2018-09-28T21:21:32.510Z,9.60
2018-09-28T21:24:01.056Z,9.50
2018-09-28T21:26:29.464Z,9.40
2018-09-28T21:28:58.687Z,9.30
2018-09-28T21:31:27.093Z,9.20
2018-09-28T21:33:55.480Z,9.20
2018-09-28T21:36:23.945Z,9.10
2018-09-28T21:38:52.417Z,9.10
2018-09-28T21:41:20.816Z,9.10
2018-09-28T21:43:49.421Z,9.00
2018-09-28T21:46:17.832Z,9.00
2018-09-28T21:48:46.224Z,8.90
2018-09-28T21:51:14.677Z,8.90
2018-09-28T21:53:43.229Z,8.80
2018-09-28T21:56:11.690Z,8.70
2018-09-28T21:58:40.119Z,8.80
2018-09-28T22:01:08.580Z,8.70
2018-09-28T22:03:37.028Z,8.70
2018-09-28T22:06:05.427Z,8.70
2018-09-28T22:08:33.943Z,8.60
2018-09-28T22:11:02.328Z,8.60
2018-09-28T22:13:30.747Z,8.60
2018-09-28T22:15:59.142Z,8.50
2018-09-28T22:18:27.549Z,8.50
2018-09-28T22:20:56.053Z,8.50
2018-09-28T22:23:24.441Z,8.40
2018-09-28T22:25:53.559Z,8.40
2018-09-28T22:28:21.940Z,8.40
2018-09-28T22:30:50.900Z,8.30
2018-09-28T22:33:19.288Z,8.30
2018-09-28T22:35:47.685Z,8.20
2018-09-28T22:38:16.184Z,8.30
2018-09-28T22:40:44.585Z,8.30
2018-09-28T22:43:13.001Z,8.20
2018-09-28T22:45:41.417Z,8.20
2018-09-28T22:48:09.832Z,8.20
2018-09-28T22:50:38.355Z,8.00
2018-09-28T22:53:07.296Z,7.90
2018-09-28T22:55:35.684Z,7.90
2018-09-28T22:58:04.100Z,7.90
2018-09-28T23:00:32.677Z,7.70
2018-09-28T23:03:01.047Z,7.60
2018-09-28T23:05:29.438Z,7.60
2018-09-28T23:07:57.929Z,7.60
2018-09-28T23:10:26.324Z,7.60
2018-09-28T23:12:54.810Z,7.40
2018-09-28T23:15:23.218Z,7.20
2018-09-28T23:17:51.736Z,7.10
2018-09-28T23:20:20.192Z,7.10
2018-09-28T23:22:48.576Z,7.00
2018-09-28T23:25:16.957Z,6.90
2018-09-28T23:27:45.690Z,6.90
2018-09-28T23:30:14.107Z,6.90
2018-09-28T23:32:42.477Z,6.90
2018-09-28T23:35:11.134Z,6.80
2018-09-28T23:37:39.492Z,6.80
2018-09-28T23:40:07.957Z,6.70
2018-09-28T23:42:36.577Z,6.80
2018-09-28T23:45:05.208Z,6.90
2018-09-28T23:47:33.651Z,6.90
2018-09-28T23:50:02.006Z,6.80
2018-09-28T23:52:30.392Z,6.70
2018-09-28T23:54:59.041Z,6.50
2018-09-28T23:57:27.420Z,6.30
2018-09-28T23:59:55.818Z,6.30
